Terschuur, Netherlands
Current Conditions -  °F | °C
As of 3:25 PM on Wednesday 28 Jan 2015 (Local Time) from EHDL Reporting Station
Rain Showers Rain Showers  
Wind Chill: 31°   Ceiling: 700
Heat Index: 41°   Visibility: 2.9mi
Dew Point: 39°   Wind: 24mph
Humidity: 93%   Direction: 200°SSW
Pressure: 29.38"   Gusts: NA
Location:  52.17°N, 5.52°E
Report Text: EHDL 281425Z AUTO 20021KT 4700 R20/2700 -SHRA FEW005 BKN007 BKN008 05/04 Q0995 GRN
Loading
Personal Weather Stations






























Interactive Weather Map New forecast layout! Learn more

10-Day Weather Forecast

Advertisements
Track Severe Weather on mobile